CMA CGM Kingfish — A8YW9 — position and weather

sailwx.info

Track history (hours):
 
Tides and Currents Weather Stations Pressure Air Temp Water Temp Dewpoint Dewpoint Depression Visibility Wind Speed Wind Dir Waves Ship Positions

CMA CGM Kingfish

Last reported at 2014-Nov-29 08:32 UTC. Time now 2014-Nov-29 08:36 UTC.
Position N 40°40' W 074°09'.

Length 294 m; draft 12 m.

Type: Ship (hazmat cat A). MMSI: 636015147.

Date/timePositionNaut miles runAvg speedWind from/ knotsBaromVisibWave heightAir tempDewpointWater temp
2014-Nov-29 08:32N 40°40' W 074°09'0 0.0
2014-Nov-29 07:32N 40°40' W 074°09'0 0.0
2014-Nov-29 06:32N 40°40' W 074°09'0 0.0
2014-Nov-29 05:32N 40°40' W 074°09'0 0.0
2014-Nov-29 04:32N 40°40' W 074°09'0 0.0
2014-Nov-29 03:32N 40°40' W 074°09'0 0.0
2014-Nov-29 02:32N 40°40' W 074°09'0 0.0
2014-Nov-29 01:32N 40°40' W 074°09'0 0.0
2014-Nov-29 00:32N 40°40' W 074°09'0 0.0
2014-Nov-28 23:32N 40°40' W 074°09'0 0.0
2014-Nov-28 22:32N 40°40' W 074°09'0 0.0
2014-Nov-28 21:32N 40°40' W 074°09'0 0.0
2014-Nov-28 20:32N 40°40' W 074°09'0 0.0
2014-Nov-28 19:32N 40°40' W 074°09'0 0.0
2014-Nov-28 18:32N 40°40' W 074°09'0 0.0
2014-Nov-28 17:32N 40°40' W 074°09'0 0.0
2014-Nov-28 16:32N 40°40' W 074°09'0 0.0
2014-Nov-28 15:32N 40°40' W 074°09'0 0.0
2014-Nov-28 14:32N 40°40' W 074°09'0 0.2
2014-Nov-28 13:33N 40°39' W 074°09'5 4.9
2014-Nov-28 12:33N 40°37' W 074°03'1110.6
2014-Nov-28 11:33N 40°29' W 073°54'6 6.1
2014-Nov-28 10:33N 40°29' W 073°46'0 0.1
2014-Nov-28 09:32N 40°29' W 073°46'0 0.0
2014-Nov-28 08:32N 40°29' W 073°46'0 0.0
2014-Nov-28 07:29N 40°29' W 073°46'0 0.0
2014-Nov-28 06:29N 40°29' W 073°46'36 9.3
2014-Nov-28 02:33N 40°30' W 072°58'1918.7
2014-Nov-28 01:33N 40°31' W 072°34'1918.7
2014-Nov-28 00:33N 40°31' W 072°09'1918.8
2014-Nov-27 23:33N 40°31' W 071°44'1918.5
2014-Nov-27 22:33N 40°32' W 071°20'  
2014-Nov-23 11:25N 40°01' W 031°04'7417.3
2014-Nov-23 07:07N 39°57' W 029°27'1017.1
2014-Nov-23 06:31N 39°55' W 029°14'1717.3
2014-Nov-23 05:33N 39°53' W 028°52'1817.3
2014-Nov-23 04:31N 39°51' W 028°29'1717.7
2014-Nov-23 03:34N 39°48' W 028°07'2118.4
2014-Nov-23 02:26N 39°46' W 027°40'3718.4
2014-Nov-23 00:24N 39°41' W 026°52'1618.6
2014-Nov-22 23:34N 39°39' W 026°32'1918.6
2014-Nov-22 22:33N 39°36' W 026°08'1818.5
2014-Nov-22 21:34N 39°34' W 025°44'2018.6
2014-Nov-22 20:30N 39°31' W 025°19'1818.6
2014-Nov-22 19:31N 39°29' W 024°56'2518.4
2014-Nov-22 18:09N 39°24' W 024°24'91618.9
2014-Nov-20 17:33N 35°58' W 005°36'1918.7
2014-Nov-20 16:33N 36°02' W 005°13'25319.3
2014-Nov-20 03:29N 36°34' W 000°02'1819.4
2014-Nov-20 02:33N 36°37' E 000°20'1919.3
2014-Nov-20 01:33N 36°40' E 000°44'7619.0
2014-Nov-19 21:33N 36°53' E 002°17'1919.0
2014-Nov-19 20:33N 36°55' E 002°41'1918.9
2014-Nov-19 19:33N 36°58' E 003°04'2119.1
2014-Nov-19 18:28N 37°02' E 003°30'1718.9
2014-Nov-19 17:33N 37°04' E 003°51'2219.2
2014-Nov-19 16:24N 37°08' E 004°19'1719.0
2014-Nov-19 15:29N 37°11' E 004°40'1819.3
2014-Nov-19 14:33N 37°14' E 005°02'2018.7
2014-Nov-19 13:29N 37°17' E 005°27'1819.1
2014-Nov-19 12:33N 37°20' E 005°49'1919.0
2014-Nov-19 11:33N 37°23' E 006°13'2118.7
2014-Nov-19 10:25N 37°26' E 006°39'  
Track history (hours):
 
Tides and Currents Weather Stations Pressure Air Temp Water Temp Dewpoint Dewpoint Depression Visibility Wind Speed Wind Dir Waves Ship Positions

CMA CGM Kingfish

Last reported at 2014-Nov-29 08:32 UTC. Time now 2014-Nov-29 08:36 UTC.
Position N 40°40' W 074°09'.

Length 294 m; draft 12 m.

Type: Ship (hazmat cat A). MMSI: 636015147.

Date/timePositionNaut miles runAvg speedWind from/ knotsBaromVisibWave heightAir tempDewpointWater temp
2014-Nov-29 08:32N 40°40' W 074°09'0 0.0
2014-Nov-29 07:32N 40°40' W 074°09'0 0.0
2014-Nov-29 06:32N 40°40' W 074°09'0 0.0
2014-Nov-29 05:32N 40°40' W 074°09'0 0.0
2014-Nov-29 04:32N 40°40' W 074°09'0 0.0
2014-Nov-29 03:32N 40°40' W 074°09'0 0.0
2014-Nov-29 02:32N 40°40' W 074°09'0 0.0
2014-Nov-29 01:32N 40°40' W 074°09'0 0.0
2014-Nov-29 00:32N 40°40' W 074°09'0 0.0
2014-Nov-28 23:32N 40°40' W 074°09'0 0.0
2014-Nov-28 22:32N 40°40' W 074°09'0 0.0
2014-Nov-28 21:32N 40°40' W 074°09'0 0.0
2014-Nov-28 20:32N 40°40' W 074°09'0 0.0
2014-Nov-28 19:32N 40°40' W 074°09'0 0.0
2014-Nov-28 18:32N 40°40' W 074°09'0 0.0
2014-Nov-28 17:32N 40°40' W 074°09'0 0.0
2014-Nov-28 16:32N 40°40' W 074°09'0 0.0
2014-Nov-28 15:32N 40°40' W 074°09'0 0.0
2014-Nov-28 14:32N 40°40' W 074°09'0 0.2
2014-Nov-28 13:33N 40°39' W 074°09'5 4.9
2014-Nov-28 12:33N 40°37' W 074°03'1110.6
2014-Nov-28 11:33N 40°29' W 073°54'6 6.1
2014-Nov-28 10:33N 40°29' W 073°46'0 0.1
2014-Nov-28 09:32N 40°29' W 073°46'0 0.0
2014-Nov-28 08:32N 40°29' W 073°46'0 0.0
2014-Nov-28 07:29N 40°29' W 073°46'0 0.0
2014-Nov-28 06:29N 40°29' W 073°46'36 9.3
2014-Nov-28 02:33N 40°30' W 072°58'1918.7
2014-Nov-28 01:33N 40°31' W 072°34'1918.7
2014-Nov-28 00:33N 40°31' W 072°09'1918.8
2014-Nov-27 23:33N 40°31' W 071°44'1918.5
2014-Nov-27 22:33N 40°32' W 071°20'  
2014-Nov-23 11:25N 40°01' W 031°04'7417.3
2014-Nov-23 07:07N 39°57' W 029°27'1017.1
2014-Nov-23 06:31N 39°55' W 029°14'1717.3
2014-Nov-23 05:33N 39°53' W 028°52'1817.3
2014-Nov-23 04:31N 39°51' W 028°29'1717.7
2014-Nov-23 03:34N 39°48' W 028°07'2118.4
2014-Nov-23 02:26N 39°46' W 027°40'3718.4
2014-Nov-23 00:24N 39°41' W 026°52'1618.6
2014-Nov-22 23:34N 39°39' W 026°32'1918.6
2014-Nov-22 22:33N 39°36' W 026°08'1818.5
2014-Nov-22 21:34N 39°34' W 025°44'2018.6
2014-Nov-22 20:30N 39°31' W 025°19'1818.6
2014-Nov-22 19:31N 39°29' W 024°56'2518.4
2014-Nov-22 18:09N 39°24' W 024°24'91618.9
2014-Nov-20 17:33N 35°58' W 005°36'1918.7
2014-Nov-20 16:33N 36°02' W 005°13'25319.3
2014-Nov-20 03:29N 36°34' W 000°02'1819.4
2014-Nov-20 02:33N 36°37' E 000°20'1919.3
2014-Nov-20 01:33N 36°40' E 000°44'7619.0
2014-Nov-19 21:33N 36°53' E 002°17'1919.0
2014-Nov-19 20:33N 36°55' E 002°41'1918.9
2014-Nov-19 19:33N 36°58' E 003°04'2119.1
2014-Nov-19 18:28N 37°02' E 003°30'1718.9
2014-Nov-19 17:33N 37°04' E 003°51'2219.2
2014-Nov-19 16:24N 37°08' E 004°19'1719.0
2014-Nov-19 15:29N 37°11' E 004°40'1819.3
2014-Nov-19 14:33N 37°14' E 005°02'2018.7
2014-Nov-19 13:29N 37°17' E 005°27'1819.1
2014-Nov-19 12:33N 37°20' E 005°49'1919.0
2014-Nov-19 11:33N 37°23' E 006°13'2118.7
2014-Nov-19 10:25N 37°26' E 006°39'  

Dump ship's entire track history